Time;durP1;ratioP1;P1;durP2;ratioP2;P2;SDS_P1;SDS_P2;PMS_P1;PMS_P2;Temp;Humidity;BMP_temperature;BMP_pressure;BME280_temperature;BME280_humidity;BME280_pressure;Samples;Min_cycle;Max_cycle;Signal;HPM_P1;HPM_P2
2022/04/20 00:01:21;;;;;;;11.50;4.20;;;;;;;38.91;42.52;100968.59;5030502;28;20408;-73
2022/04/20 00:03:47;;;;;;;13.73;5.03;;;;;;;38.92;42.70;100970.22;5031817;28;20404;-73
2022/04/20 00:06:13;;;;;;;17.13;6.47;;;;;;;38.88;42.80;100966.50;5030597;28;20420;-73
2022/04/20 00:08:39;;;;;;;16.40;4.57;;;;;;;38.92;42.75;100956.66;5030718;28;20424;-73
2022/04/20 00:11:05;;;;;;;13.43;5.30;;;;;;;38.98;42.81;100966.25;5031793;28;20414;-72
2022/04/20 00:13:31;;;;;;;18.90;4.77;;;;;;;38.94;42.71;100963.34;5014146;28;20428;-73
2022/04/20 00:15:58;;;;;;;11.00;4.53;;;;;;;38.92;42.78;100964.78;5030120;28;20553;-73
2022/04/20 00:18:24;;;;;;;10.80;5.00;;;;;;;38.99;42.30;100965.16;5033918;28;20470;-72
2022/04/20 00:20:50;;;;;;;11.53;5.00;;;;;;;38.95;42.53;100966.88;5034281;28;20936;-73
2022/04/20 00:23:16;;;;;;;18.57;5.37;;;;;;;38.92;42.57;100968.31;5035620;28;20947;-73
2022/04/20 00:25:42;;;;;;;12.87;4.87;;;;;;;38.91;42.73;100966.69;5034268;28;20819;-73
2022/04/20 00:28:08;;;;;;;10.33;4.67;;;;;;;38.97;42.78;100960.00;5033887;28;20467;-74
2022/04/20 00:30:34;;;;;;;14.80;5.43;;;;;;;38.92;42.56;100962.88;5034229;28;20426;-73
2022/04/20 00:33:00;;;;;;;16.00;4.60;;;;;;;38.93;43.02;100960.97;5017675;28;20936;-72
2022/04/20 00:35:27;;;;;;;15.93;4.77;;;;;;;38.92;42.97;100949.31;5034040;28;20451;-72
2022/04/20 00:37:54;;;;;;;17.83;6.00;;;;;;;38.92;43.03;100953.94;5034136;28;20444;-73
2022/04/20 00:40:20;;;;;;;20.63;5.50;;;;;;;38.88;42.62;100958.38;5033920;28;20503;-73
2022/04/20 00:42:48;;;;;;;10.63;4.97;;;;;;;38.88;42.77;100950.25;5033797;28;20443;-72
2022/04/20 00:45:14;;;;;;;12.00;4.40;;;;;;;38.88;42.81;100953.75;5033803;28;20978;-72
2022/04/20 00:47:43;;;;;;;10.47;3.93;;;;;;;38.91;42.75;100942.25;5033788;28;20500;-73
2022/04/20 00:50:10;;;;;;;17.93;6.00;;;;;;;38.93;42.83;100936.56;5035242;28;20461;-73
2022/04/20 00:52:37;;;;;;;19.80;5.70;;;;;;;39.01;42.60;100930.38;5033817;28;20431;-74
2022/04/20 00:55:04;;;;;;;12.47;6.63;;;;;;;38.88;43.01;100923.13;5035064;28;20451;-71
2022/04/20 00:57:30;;;;;;;13.50;5.27;;;;;;;38.88;42.98;100913.06;5033636;28;20509;-71
2022/04/20 01:00:00;;;;;;;18.90;6.63;;;;;;;38.84;43.26;100911.28;5033788;28;20501;-73
2022/04/20 01:02:31;;;;;;;13.33;5.27;;;;;;;38.82;43.29;100905.38;5033612;28;20448;-74
2022/04/20 01:04:57;;;;;;;11.10;6.00;;;;;;;38.84;42.96;100901.25;5033639;28;20415;-72
2022/04/20 01:07:23;;;;;;;13.77;5.80;;;;;;;38.88;43.32;100906.84;5034738;28;20505;-73
2022/04/20 01:09:49;;;;;;;17.00;5.40;;;;;;;38.83;43.38;100904.28;5034748;28;20400;-73
2022/04/20 01:12:17;;;;;;;10.37;6.83;;;;;;;38.85;43.13;100916.38;5033572;28;20419;-73
2022/04/20 01:14:44;;;;;;;12.77;4.70;;;;;;;38.63;43.73;100911.00;5034462;28;20967;-73
2022/04/20 01:17:10;;;;;;;13.03;4.30;;;;;;;38.63;44.13;100922.63;5033333;28;20844;-73
2022/04/20 01:19:41;;;;;;;8.00;3.93;;;;;;;38.58;43.60;100914.63;5033394;28;20455;-73
2022/04/20 01:22:08;;;;;;;16.67;6.07;;;;;;;38.57;43.70;100920.38;5033047;28;20463;-72
2022/04/20 01:24:37;;;;;;;16.90;6.13;;;;;;;38.58;43.96;100925.47;5033280;28;20435;-72
2022/04/20 01:27:05;;;;;;;12.03;5.03;;;;;;;38.54;44.20;100912.84;5033003;28;20495;-74
2022/04/20 01:29:33;;;;;;;10.20;4.33;;;;;;;38.60;43.85;100903.47;5032118;28;20454;-73
2022/04/20 01:31:59;;;;;;;13.47;5.20;;;;;;;38.60;43.83;100900.75;5033069;28;20423;-73
2022/04/20 01:34:25;;;;;;;13.13;4.47;;;;;;;38.64;43.83;100907.16;5032975;28;20471;-73
2022/04/20 01:36:51;;;;;;;17.10;6.30;;;;;;;38.63;43.95;100902.84;5032934;28;20447;-72
2022/04/20 01:39:17;;;;;;;16.60;5.70;;;;;;;38.58;43.88;100906.50;5033230;28;20432;-74
2022/04/20 01:41:44;;;;;;;13.70;7.17;;;;;;;38.52;44.21;100907.72;5032980;28;20982;-73
2022/04/20 01:44:10;;;;;;;8.63;4.83;;;;;;;38.50;44.05;100907.25;5032589;28;20444;-72
2022/04/20 01:46:36;;;;;;;9.20;4.63;;;;;;;38.49;44.42;100902.94;5032842;28;20494;-71
2022/04/20 01:49:03;;;;;;;14.80;4.77;;;;;;;38.41;44.23;100900.94;5034135;28;20404;-72
2022/04/20 01:51:50;;;;;;;7.70;4.30;;;;;;;38.42;44.58;100900.63;5032560;28;21001;-73
2022/04/20 01:54:18;;;;;;;14.93;6.80;;;;;;;38.49;44.35;100894.81;5032729;28;20915;-71
2022/04/20 01:56:46;;;;;;;11.10;5.03;;;;;;;38.51;44.56;100880.94;5032562;28;20419;-74
2022/04/20 01:59:12;;;;;;;14.63;5.07;;;;;;;38.50;44.38;100876.63;5032453;28;20458;-73
2022/04/20 02:04:23;;;;;;;16.30;5.97;;;;;;;38.43;44.57;100864.31;5033678;28;20430;-72
2022/04/20 02:06:49;;;;;;;9.03;6.27;;;;;;;38.42;44.50;100873.53;5033684;28;20825;-72
2022/04/20 02:09:15;;;;;;;11.80;5.13;;;;;;;38.43;44.69;100869.75;5032181;28;20412;-72
2022/04/20 02:11:41;;;;;;;13.30;7.33;;;;;;;38.45;44.46;100869.44;5032216;28;20430;-73
2022/04/20 02:14:07;;;;;;;12.37;5.77;;;;;;;38.38;44.30;100867.16;5032198;28;20503;-73
2022/04/20 02:16:33;;;;;;;9.27;6.97;;;;;;;38.35;44.65;100856.13;5032073;28;20476;-71
2022/04/20 02:18:59;;;;;;;11.73;5.90;;;;;;;38.20;44.68;100867.31;5032184;28;20431;-73
2022/04/20 02:21:26;;;;;;;18.27;8.83;;;;;;;37.91;45.43;100863.91;5032265;28;20422;-71
2022/04/20 02:23:52;;;;;;;17.03;7.90;;;;;;;37.87;45.90;100857.47;5032024;28;20818;-72
2022/04/20 02:26:18;;;;;;;17.00;9.43;;;;;;;37.88;45.63;100856.41;5032106;28;20423;-72
2022/04/20 02:28:44;;;;;;;13.03;9.57;;;;;;;37.87;46.05;100857.47;5031801;28;20471;-72
2022/04/20 02:31:10;;;;;;;18.63;10.07;;;;;;;37.97;45.73;100850.25;5033154;28;20412;-73
2022/04/20 02:33:36;;;;;;;22.70;13.07;;;;;;;38.03;45.43;100852.53;5032249;28;21063;-73
2022/04/20 02:36:02;;;;;;;21.97;13.70;;;;;;;38.04;45.75;100851.41;5031815;28;20466;-73
2022/04/20 02:38:29;;;;;;;23.57;15.70;;;;;;;38.08;45.15;100846.19;5031847;28;20466;-72
2022/04/20 02:40:56;;;;;;;20.40;13.20;;;;;;;38.06;45.07;100849.22;5031863;28;20510;-72
2022/04/20 02:43:22;;;;;;;26.63;15.03;;;;;;;37.84;45.82;100841.06;5031693;28;20420;-72
2022/04/20 02:45:48;;;;;;;27.63;19.00;;;;;;;37.46;46.48;100840.53;5031734;28;20439;-72
2022/04/20 02:48:15;;;;;;;26.43;16.90;;;;;;;37.48;46.91;100838.31;5033042;28;20403;-73
2022/04/20 02:50:43;;;;;;;23.53;16.67;;;;;;;37.26;47.03;100839.00;5031608;28;20502;-72
2022/04/20 02:53:09;;;;;;;25.50;17.40;;;;;;;37.40;46.73;100837.13;5031556;28;20443;-72
2022/04/20 02:55:35;;;;;;;22.90;18.00;;;;;;;37.41;46.97;100827.91;5031458;28;20474;-73
2022/04/20 02:58:01;;;;;;;33.13;16.77;;;;;;;37.49;47.18;100839.91;5031536;28;20427;-73
2022/04/20 03:00:27;;;;;;;34.83;20.37;;;;;;;37.46;46.58;100851.34;5032794;28;20407;-73
2022/04/20 03:02:53;;;;;;;23.70;17.47;;;;;;;37.42;46.88;100853.84;5031331;28;20427;-72
2022/04/20 03:05:19;;;;;;;28.13;16.93;;;;;;;37.54;46.79;100851.44;5031288;28;20507;-71
2022/04/20 03:07:45;;;;;;;28.00;17.30;;;;;;;37.51;46.75;100852.06;5031153;28;20815;-72
2022/04/20 03:10:11;;;;;;;26.17;16.80;;;;;;;37.39;46.99;100846.34;5031156;28;20889;-72
2022/04/20 03:12:38;;;;;;;25.83;15.47;;;;;;;37.40;47.08;100847.16;5031248;28;20939;-73
2022/04/20 03:15:05;;;;;;;19.73;14.57;;;;;;;37.51;46.66;100856.66;5031054;28;21006;-71
2022/04/20 03:17:31;;;;;;;23.97;15.63;;;;;;;37.49;46.74;100838.00;5032337;28;20837;-71
2022/04/20 03:19:57;;;;;;;19.97;18.00;;;;;;;37.61;46.79;100848.31;5030997;28;20424;-72
2022/04/20 03:22:23;;;;;;;24.33;15.63;;;;;;;37.59;46.45;100840.50;5031299;28;20471;-72
2022/04/20 03:24:49;;;;;;;20.93;14.50;;;;;;;37.65;46.03;100849.31;5032392;28;20962;-72
2022/04/20 03:27:15;;;;;;;23.63;14.80;;;;;;;37.64;46.27;100840.41;5030626;28;20491;-72
2022/04/20 03:29:42;;;;;;;24.90;14.77;;;;;;;37.75;46.00;100832.03;5031021;28;20936;-73
2022/04/20 03:32:10;;;;;;;17.80;13.53;;;;;;;37.82;46.00;100838.66;5030607;28;20450;-73
2022/04/20 03:34:37;;;;;;;26.73;16.10;;;;;;;37.88;45.87;100842.88;5030860;28;20529;-73
2022/04/20 03:37:06;;;;;;;16.70;12.40;;;;;;;37.81;45.84;100849.78;5030812;28;20426;-72
2022/04/20 03:39:35;;;;;;;23.20;12.30;;;;;;;37.76;45.93;100839.88;5032001;28;20439;-72
2022/04/20 03:42:01;;;;;;;27.67;13.10;;;;;;;37.78;46.04;100844.97;5030762;28;20415;-72
2022/04/20 03:44:27;;;;;;;20.20;12.90;;;;;;;37.74;46.15;100836.63;5030490;28;20528;-72
2022/04/20 03:46:53;;;;;;;18.10;14.90;;;;;;;37.82;46.12;100843.28;5014412;28;20427;-72
2022/04/20 03:49:19;;;;;;;24.23;14.87;;;;;;;37.95;45.84;100837.03;5030608;28;20451;-72
2022/04/20 03:51:46;;;;;;;23.03;17.10;;;;;;;37.98;45.81;100835.59;5013940;28;20420;-73
2022/04/20 03:54:13;;;;;;;24.90;19.60;;;;;;;38.06;45.57;100837.56;5030492;28;20440;-72
2022/04/20 03:59:24;;;;;;;20.80;12.17;;;;;;;38.09;45.46;100829.63;5031925;28;20827;-72
2022/04/20 04:01:51;;;;;;;25.40;15.10;;;;;;;38.09;45.59;100837.75;5030335;28;20463;-73
2022/04/20 04:04:18;;;;;;;18.47;11.93;;;;;;;38.07;45.21;100826.44;5030538;28;20481;-72
2022/04/20 04:06:45;;;;;;;19.57;9.50;;;;;;;38.19;44.98;100834.00;5030442;28;20423;-74
2022/04/20 04:09:11;;;;;;;13.40;7.23;;;;;;;38.19;44.88;100825.88;5030284;28;20859;-71
2022/04/20 04:11:37;;;;;;;14.00;6.90;;;;;;;38.14;44.73;100831.41;5031821;28;20418;-71
2022/04/20 04:14:03;;;;;;;12.20;4.97;;;;;;;38.26;44.73;100820.03;5014084;28;20424;-71
2022/04/20 04:16:29;;;;;;;10.90;4.97;;;;;;;38.22;44.62;100827.97;5031547;28;20451;-73
2022/04/20 04:18:55;;;;;;;10.83;6.00;;;;;;;38.22;45.00;100835.28;5031661;28;20443;-73
2022/04/20 04:21:22;;;;;;;20.93;10.43;;;;;;;38.08;44.98;100828.03;5030442;28;20928;-72
2022/04/20 04:23:48;;;;;;;15.70;9.70;;;;;;;37.85;46.01;100829.13;5031639;28;20459;-73
2022/04/20 04:26:14;;;;;;;20.73;11.10;;;;;;;37.74;46.17;100835.84;5030237;28;20439;-74
2022/04/20 04:28:40;;;;;;;22.87;13.80;;;;;;;37.42;47.25;100839.53;5031446;28;20471;-72
2022/04/20 04:31:07;;;;;;;19.63;13.20;;;;;;;37.41;47.32;100837.94;5030313;28;20478;-72
2022/04/20 04:33:34;;;;;;;29.40;16.93;;;;;;;37.41;46.97;100844.13;5030330;28;20426;-72
2022/04/20 04:36:04;;;;;;;17.43;13.90;;;;;;;37.32;47.51;100840.50;5030198;28;20463;-73
2022/04/20 04:38:30;;;;;;;19.33;14.17;;;;;;;37.53;46.73;100841.72;5030311;28;20792;-73
2022/04/20 04:40:56;;;;;;;25.83;15.90;;;;;;;37.21;47.92;100849.94;5030159;28;20430;-71
2022/04/20 04:43:22;;;;;;;23.00;18.23;;;;;;;37.23;47.89;100855.84;5030057;28;20786;-71
2022/04/20 04:48:39;;;;;;;21.63;18.43;;;;;;;36.91;48.42;100851.34;5031682;28;20483;-71
2022/04/20 04:51:10;;;;;;;32.00;22.77;;;;;;;36.75;48.75;100850.78;5031478;28;20919;-71
2022/04/20 04:53:37;;;;;;;40.30;20.77;;;;;;;36.86;48.74;100852.19;5030066;28;20950;-72
2022/04/20 04:56:04;;;;;;;29.97;21.77;;;;;;;37.12;48.21;100849.84;5029993;28;20921;-72
2022/04/20 04:58:30;;;;;;;29.10;20.73;;;;;;;37.19;47.34;100852.94;5030075;28;20412;-72
2022/04/20 05:00:58;;;;;;;28.33;19.57;;;;;;;37.22;47.36;100851.53;5030276;28;20871;-72
2022/04/20 05:03:25;;;;;;;25.93;20.57;;;;;;;37.34;47.20;100852.66;5030291;28;20502;-73
2022/04/20 05:05:52;;;;;;;33.87;22.10;;;;;;;37.47;46.98;100852.97;5033574;28;20422;-73
2022/04/20 05:08:18;;;;;;;28.70;21.67;;;;;;;37.48;46.89;100852.66;5033590;28;20423;-71
2022/04/20 05:10:44;;;;;;;31.93;22.77;;;;;;;37.61;46.75;100854.53;5033831;28;20449;-71
2022/04/20 05:13:10;;;;;;;37.17;26.53;;;;;;;37.73;46.20;100864.03;5034832;28;20399;-72
2022/04/20 05:15:37;;;;;;;35.27;24.80;;;;;;;37.73;46.45;100866.72;5034645;28;20458;-72
2022/04/20 05:18:03;;;;;;;28.33;24.33;;;;;;;37.70;46.58;100868.16;5034688;28;20416;-73
2022/04/20 05:20:30;;;;;;;30.73;21.13;;;;;;;37.63;46.10;100873.19;5033339;28;20407;-73
2022/04/20 05:22:56;;;;;;;36.73;21.83;;;;;;;37.53;46.77;100876.91;5036119;28;20438;-72
2022/04/20 05:25:22;;;;;;;29.20;19.73;;;;;;;37.57;46.66;100872.50;5042010;28;20978;-72
2022/04/20 05:27:48;;;;;;;32.93;24.07;;;;;;;37.62;46.53;100876.97;5043384;28;20553;-72
2022/04/20 05:30:14;;;;;;;29.43;23.20;;;;;;;37.64;46.33;100872.88;5042649;28;20449;-72
2022/04/20 05:32:43;;;;;;;33.63;25.17;;;;;;;37.63;46.27;100875.88;5040607;28;20415;-71
2022/04/20 05:35:11;;;;;;;32.03;22.27;;;;;;;37.61;46.38;100878.09;5041388;28;20455;-73
2022/04/20 05:43:06;;;;;;;34.20;28.00;;;;;;;37.53;46.28;100895.03;5034240;28;20469;-74
2022/04/20 05:45:32;;;;;;;37.07;29.17;;;;;;;37.31;46.71;100895.72;5032735;28;20439;-74
2022/04/20 05:47:59;;;;;;;38.63;28.40;;;;;;;36.98;47.12;100897.72;5032840;28;20939;-72
2022/04/20 05:50:26;;;;;;;36.27;27.77;;;;;;;37.10;47.12;100908.84;5032672;28;20439;-73
2022/04/20 05:52:52;;;;;;;35.70;26.43;;;;;;;37.27;47.02;100919.88;5032774;28;20419;-73
2022/04/20 05:55:18;;;;;;;34.43;28.40;;;;;;;37.17;47.11;100911.16;5032664;28;20467;-73
2022/04/20 05:57:47;;;;;;;36.43;28.17;;;;;;;37.24;46.71;100914.25;5032580;28;20990;-72
2022/04/20 06:00:15;;;;;;;39.10;27.50;;;;;;;37.23;47.08;100910.75;5042065;28;20427;-72
2022/04/20 06:02:41;;;;;;;39.63;27.83;;;;;;;37.27;46.98;100903.66;5041975;28;20443;-71
2022/04/20 06:05:08;;;;;;;34.50;28.47;;;;;;;37.14;47.30;100917.97;5043922;28;20437;-71
2022/04/20 06:07:34;;;;;;;32.30;25.07;;;;;;;37.07;47.39;100920.25;5041630;28;20787;-70
2022/04/20 06:10:01;;;;;;;38.37;28.87;;;;;;;37.12;47.51;100926.34;5042612;28;20450;-70
2022/04/20 06:12:27;;;;;;;53.33;25.67;;;;;;;37.23;46.98;100918.88;5043661;28;20813;-73
2022/04/20 06:14:54;;;;;;;48.50;31.10;;;;;;;37.09;47.64;100926.97;5043147;28;20482;-71
2022/04/20 06:17:20;;;;;;;35.13;24.27;;;;;;;36.75;48.52;100934.56;5043477;28;20446;-68
2022/04/20 06:19:46;;;;;;;43.87;28.87;;;;;;;37.02;47.96;100937.38;5045790;28;20457;-67
2022/04/20 06:22:12;;;;;;;37.63;29.50;;;;;;;37.15;47.23;100937.69;5046737;28;20415;-66
2022/04/20 06:24:38;;;;;;;34.57;28.30;;;;;;;37.27;47.32;100946.94;5036172;28;20431;-69
2022/04/20 06:27:05;;;;;;;45.47;30.50;;;;;;;37.10;47.41;100950.22;5046016;28;20548;-68
2022/04/20 06:29:31;;;;;;;34.00;27.80;;;;;;;37.24;47.22;100946.72;5043126;28;20477;-67
2022/04/20 06:31:57;;;;;;;33.50;28.20;;;;;;;37.26;47.06;100952.63;5042741;28;21005;-67
2022/04/20 06:34:23;;;;;;;41.73;25.47;;;;;;;36.98;47.84;100960.69;5039696;28;20430;-68
2022/04/20 06:36:49;;;;;;;35.37;28.73;;;;;;;36.95;48.08;100972.09;5031768;28;20486;-67
2022/04/20 06:39:16;;;;;;;39.90;25.03;;;;;;;37.12;48.01;100971.53;5031883;28;20447;-67
2022/04/20 06:41:42;;;;;;;35.47;27.70;;;;;;;36.89;48.51;100981.38;5045683;28;21000;-68
2022/04/20 06:44:08;;;;;;;39.70;25.90;;;;;;;37.21;47.71;100991.41;5051104;28;20453;-69
2022/04/20 06:46:34;;;;;;;30.80;23.03;;;;;;;37.34;47.09;100989.84;5052602;28;20410;-66
2022/04/20 06:49:00;;;;;;;31.77;25.10;;;;;;;37.56;46.60;100995.34;5040693;28;20784;-68
2022/04/20 06:58:31;;;;;;;31.13;23.10;;;;;;;37.82;46.06;100992.19;5048943;28;21024;-70
2022/04/20 06:59:41;;;;;;;29.70;23.67;;;;;;;38.08;46.11;101008.72;5050738;28;20395;-71
2022/04/20 07:02:08;;;;;;;36.20;25.20;;;;;;;38.03;46.08;101009.63;5040746;28;20448;-70
2022/04/20 07:04:34;;;;;;;32.67;22.47;;;;;;;37.59;46.93;101008.31;5043774;28;20419;-69
2022/04/20 07:07:00;;;;;;;30.40;22.80;;;;;;;37.56;47.40;101014.31;5049216;28;20447;-71
2022/04/20 07:09:26;;;;;;;30.40;23.17;;;;;;;37.19;48.26;101012.53;5049513;28;21217;-71
2022/04/20 07:11:52;;;;;;;30.33;21.83;;;;;;;37.28;48.32;101023.47;5051556;28;20399;-71
2022/04/20 07:14:18;;;;;;;29.43;22.60;;;;;;;37.43;47.74;101025.91;5050920;28;20446;-72
2022/04/20 07:16:44;;;;;;;31.07;23.63;;;;;;;37.35;48.41;101029.31;5051083;28;20434;-71
2022/04/20 07:19:10;;;;;;;31.20;22.47;;;;;;;37.35;48.29;101026.63;5051010;28;20418;-70
2022/04/20 07:21:36;;;;;;;29.23;21.80;;;;;;;37.27;48.69;101032.69;5050901;28;21126;-71
2022/04/20 07:24:02;;;;;;;33.50;18.77;;;;;;;37.61;47.81;101037.78;5046195;28;20411;-68
2022/04/20 07:26:28;;;;;;;23.00;18.60;;;;;;;37.85;46.97;101045.72;5038995;28;20400;-69
2022/04/20 07:28:55;;;;;;;28.57;19.67;;;;;;;37.96;46.95;101043.63;5025176;28;20455;-70
2022/04/20 07:31:21;;;;;;;22.93;16.20;;;;;;;38.07;46.75;101051.25;5038007;28;20404;-70
2022/04/20 07:33:47;;;;;;;14.40;13.10;;;;;;;38.27;45.94;101050.03;5034950;28;20522;-70
2022/04/20 07:36:13;;;;;;;21.77;12.70;;;;;;;38.07;46.59;101051.25;5042125;28;20459;-68
2022/04/20 07:38:39;;;;;;;17.17;10.83;;;;;;;38.26;46.01;101059.28;5041106;28;20443;-70
2022/04/20 07:41:05;;;;;;;15.60;11.73;;;;;;;38.47;45.50;101067.75;5039902;28;20415;-69
2022/04/20 07:44:05;;;;;;;27.93;12.03;;;;;;;38.48;45.34;101063.94;5040792;28;20422;-69
2022/04/20 07:46:31;;;;;;;22.23;10.10;;;;;;;38.47;45.30;101064.25;5041161;28;20506;-70
2022/04/20 07:48:57;;;;;;;16.50;10.60;;;;;;;38.57;44.93;101072.97;5038344;28;20450;-70
2022/04/20 07:51:23;;;;;;;17.03;9.30;;;;;;;38.54;45.32;101067.34;5041009;28;20422;-70
2022/04/20 07:53:49;;;;;;;17.97;10.23;;;;;;;38.60;44.94;101063.41;5041649;28;20441;-69
2022/04/20 07:56:15;;;;;;;16.47;9.50;;;;;;;38.65;44.95;101072.22;5050552;28;20457;-71
2022/04/20 07:58:42;;;;;;;25.70;9.60;;;;;;;38.73;44.97;101072.63;5042265;28;20460;-69
2022/04/20 08:01:09;;;;;;;19.60;9.40;;;;;;;38.70;45.23;101072.09;5032907;28;20483;-71
2022/04/20 08:03:35;;;;;;;15.23;7.87;;;;;;;38.69;45.17;101073.22;5050512;28;20500;-70
2022/04/20 08:06:01;;;;;;;17.80;10.47;;;;;;;38.66;45.07;101079.25;5050346;28;20430;-71
2022/04/20 08:08:27;;;;;;;17.90;10.63;;;;;;;38.50;45.85;101075.28;5044823;28;20427;-72
2022/04/20 08:10:53;;;;;;;16.47;10.97;;;;;;;38.54;45.93;101080.88;5033735;28;20423;-70
2022/04/20 08:16:04;;;;;;;18.67;8.57;;;;;;;38.21;46.21;101077.50;5051567;28;20925;-71
2022/04/20 08:18:30;;;;;;;16.97;10.07;;;;;;;38.10;46.71;101079.63;5050403;28;20415;-72
2022/04/20 08:20:56;;;;;;;24.47;9.20;;;;;;;38.25;46.39;101087.44;5050401;28;20501;-70
2022/04/20 08:23:24;;;;;;;17.17;9.53;;;;;;;38.34;46.25;101082.13;5050206;28;20414;-69
2022/04/20 08:25:50;;;;;;;15.03;7.47;;;;;;;38.42;46.01;101086.84;5044152;28;20427;-69
2022/04/20 08:28:17;;;;;;;17.90;8.57;;;;;;;38.56;45.69;101097.66;5031362;28;20471;-71
2022/04/20 08:30:44;;;;;;;17.13;7.80;;;;;;;38.76;45.37;101091.00;5030339;28;20443;-70
2022/04/20 08:33:10;;;;;;;15.37;8.10;;;;;;;38.84;45.09;101085.66;5043271;28;20517;-70
2022/04/20 08:35:37;;;;;;;13.67;7.53;;;;;;;38.84;45.20;101082.94;5041660;28;20540;-68
2022/04/20 08:38:06;;;;;;;19.43;8.13;;;;;;;38.64;45.49;101089.59;5042035;28;20415;-69
2022/04/20 08:40:33;;;;;;;11.47;8.10;;;;;;;38.65;45.40;101085.78;5040169;28;20953;-69
2022/04/20 08:43:05;;;;;;;18.17;8.97;;;;;;;38.80;45.68;101087.38;5043833;28;20407;-69
2022/04/20 08:45:37;;;;;;;10.93;7.20;;;;;;;38.66;45.46;101084.66;5043475;28;20812;-73
2022/04/20 08:48:04;;;;;;;18.57;7.67;;;;;;;38.83;44.92;101080.53;5064887;28;20425;-70
2022/04/20 08:50:30;;;;;;;21.10;8.60;;;;;;;38.55;45.02;101079.78;5067401;28;20411;-72
2022/04/20 08:52:58;;;;;;;20.63;9.30;;;;;;;38.74;45.01;101074.25;5045898;28;20420;-70
2022/04/20 08:55:25;;;;;;;23.17;8.27;;;;;;;38.78;45.18;101072.50;5025256;28;20454;-71
2022/04/20 08:57:52;;;;;;;15.30;7.40;;;;;;;38.84;45.14;101074.00;5017372;28;20778;-75
2022/04/20 09:00:22;;;;;;;16.03;9.50;;;;;;;38.95;45.00;101078.88;5035068;28;20431;-73
2022/04/20 09:03:00;;;;;;;14.90;7.80;;;;;;;39.03;44.67;101076.53;5017339;28;20823;-73
2022/04/20 09:05:29;;;;;;;15.10;8.40;;;;;;;38.60;45.91;101076.97;5033744;28;20507;-73
2022/04/20 09:07:56;;;;;;;14.53;7.30;;;;;;;38.73;45.23;101078.03;5017086;28;20458;-73
2022/04/20 09:10:23;;;;;;;12.17;6.67;;;;;;;38.47;45.76;101080.50;5033658;28;20412;-69
2022/04/20 09:13:11;;;;;;;16.23;7.83;;;;;;;38.60;45.58;101088.59;5033680;28;20400;-70
2022/04/20 09:15:39;;;;;;;17.07;8.20;;;;;;;38.78;45.09;101086.88;5033161;28;20897;-70
2022/04/20 09:18:08;;;;;;;12.33;7.20;;;;;;;38.79;45.19;101084.97;5015266;28;20420;-71
2022/04/20 09:20:35;;;;;;;15.33;8.80;;;;;;;39.01;44.83;101087.69;5032822;28;20400;-72
2022/04/20 09:23:09;;;;;;;10.17;5.57;;;;;;;38.76;45.10;101080.97;5031509;28;20416;-71
2022/04/20 09:25:36;;;;;;;11.13;5.77;;;;;;;38.89;44.47;101080.09;5015602;28;20403;-70
2022/04/20 09:28:05;;;;;;;10.50;5.50;;;;;;;38.76;44.66;101085.59;5031237;28;20503;-71
2022/04/20 09:30:38;;;;;;;22.07;7.27;;;;;;;38.89;44.60;101080.09;5031479;28;20536;-70
2022/04/20 09:33:10;;;;;;;14.83;6.03;;;;;;;38.92;44.63;101092.25;5016640;28;20913;-70
2022/04/20 09:35:53;;;;;;;12.37;6.50;;;;;;;38.92;44.64;101081.41;5017296;28;20975;-69
2022/04/20 09:38:22;;;;;;;10.80;6.70;;;;;;;38.48;45.46;101082.91;5033122;28;20423;-69
2022/04/20 09:40:49;;;;;;;9.40;5.67;;;;;;;38.79;44.65;101079.53;5034216;28;20404;-71
2022/04/20 09:43:18;;;;;;;12.53;6.60;;;;;;;38.82;44.86;101082.44;5032932;28;20424;-71
2022/04/20 09:46:02;;;;;;;14.30;6.30;;;;;;;38.89;44.53;101085.53;5034054;28;20955;-71
2022/04/20 09:51:20;;;;;;;13.63;7.07;;;;;;;38.80;44.28;101089.28;5032777;28;20399;-69
2022/04/20 09:53:52;;;;;;;18.93;6.90;;;;;;;38.90;44.59;101083.63;5032693;28;20920;-69
2022/04/20 09:56:27;;;;;;;12.33;6.40;;;;;;;38.98;44.85;101080.19;5029192;28;20462;-68
2022/04/20 09:59:11;;;;;;;11.67;8.37;;;;;;;38.72;44.85;101082.66;5037794;28;20411;-70
2022/04/20 10:01:37;;;;;;;15.90;8.63;;;;;;;38.84;44.44;101076.72;5041609;28;20477;-71
2022/04/20 10:04:06;;;;;;;17.10;7.30;;;;;;;38.73;44.32;101075.34;5068064;28;20458;-71
2022/04/20 10:06:33;;;;;;;11.80;7.23;;;;;;;38.85;44.41;101075.59;5034987;28;20455;-70
2022/04/20 10:08:59;;;;;;;17.50;8.53;;;;;;;38.93;44.19;101078.38;5032486;28;20415;-70
2022/04/20 10:11:26;;;;;;;16.23;8.83;;;;;;;39.02;44.01;101083.88;5033038;28;20454;-69
2022/04/20 10:16:47;;;;;;;12.90;8.20;;;;;;;39.11;43.86;101081.22;5032116;28;20529;-70
2022/04/20 10:19:14;;;;;;;16.33;9.17;;;;;;;39.13;43.73;101077.09;5031885;28;20416;-70
2022/04/20 10:21:52;;;;;;;12.90;8.10;;;;;;;39.24;43.50;101072.25;5032746;28;20436;-68
2022/04/20 10:24:24;;;;;;;14.43;6.53;;;;;;;39.15;43.72;101066.72;5015824;28;20485;-72
2022/04/20 10:26:51;;;;;;;18.50;9.70;;;;;;;39.05;44.08;101058.03;4999275;28;20932;-69
2022/04/20 10:29:59;;;;;;;13.67;6.13;;;;;;;39.04;43.85;101051.00;5032314;28;20506;-67
2022/04/20 10:32:31;;;;;;;11.50;5.30;;;;;;;39.11;42.66;101057.59;5027171;28;20451;-70
2022/04/20 10:34:59;;;;;;;11.50;6.30;;;;;;;39.10;42.90;101050.59;5036150;28;20477;-69
2022/04/20 10:37:28;;;;;;;9.87;5.80;;;;;;;39.10;42.69;101056.00;5046089;28;20429;-70
2022/04/20 10:40:13;;;;;;;15.57;6.30;;;;;;;39.15;42.76;101058.56;5064173;28;20422;-72
2022/04/20 10:42:39;;;;;;;10.17;4.70;;;;;;;39.19;42.21;101048.75;5042753;28;20549;-69
2022/04/20 10:45:08;;;;;;;15.47;4.77;;;;;;;39.43;41.45;101050.31;5057850;28;20451;-69
2022/04/20 10:47:42;;;;;;;9.60;4.27;;;;;;;39.08;41.45;101054.69;5033084;28;20431;-74
2022/04/20 10:50:23;;;;;;;12.63;4.20;;;;;;;39.03;41.92;101050.19;5051652;28;20418;-73
2022/04/20 10:52:57;;;;;;;12.93;4.17;;;;;;;39.20;42.38;101041.41;5052797;28;20402;-75
2022/04/20 10:55:46;;;;;;;7.50;4.50;;;;;;;39.39;42.34;101041.19;5049720;28;20465;-69
2022/04/20 10:58:22;;;;;;;9.53;4.60;;;;;;;39.31;42.37;101033.81;5037642;28;20411;-71
2022/04/20 11:01:12;;;;;;;6.90;4.13;;;;;;;39.41;42.74;101038.94;5038922;28;20502;-71
2022/04/20 11:04:05;;;;;;;8.37;3.77;;;;;;;39.19;43.00;101039.81;5041955;28;20422;-69
2022/04/20 11:07:01;;;;;;;10.50;4.57;;;;;;;39.45;42.51;101035.28;5041196;28;20500;-70
2022/04/20 11:09:46;;;;;;;9.17;4.13;;;;;;;39.55;42.36;101039.66;5032401;28;20862;-69
2022/04/20 11:21:09;;;;;;;12.50;5.50;;;;;;;39.50;42.57;101032.44;5052396;28;20464;-69
2022/04/20 11:24:05;;;;;;;9.13;5.10;;;;;;;39.48;42.10;101026.53;5050976;28;20446;-69
2022/04/20 11:26:34;;;;;;;8.27;4.00;;;;;;;39.52;41.92;101023.19;5050910;28;20508;-71
2022/04/20 11:29:14;;;;;;;13.13;4.87;;;;;;;39.36;41.93;101020.09;5047422;28;20483;-70
2022/04/20 11:31:44;;;;;;;7.20;4.00;;;;;;;39.68;41.35;101017.06;5040689;28;20539;-69
2022/04/20 11:34:11;;;;;;;9.30;5.40;;;;;;;39.63;41.49;101017.19;5041309;28;20438;-69
2022/04/20 11:36:53;;;;;;;13.83;4.60;;;;;;;39.37;41.75;101019.00;5037515;28;20971;-71
2022/04/20 11:39:21;;;;;;;11.70;5.10;;;;;;;39.40;41.35;101007.50;5030873;28;20420;-74
2022/04/20 11:41:52;;;;;;;9.60;4.30;;;;;;;39.48;41.03;101009.47;5030731;28;20854;-70
2022/04/20 11:44:23;;;;;;;12.17;3.87;;;;;;;39.50;40.87;101004.50;5030724;28;20447;-70
2022/04/20 11:46:50;;;;;;;9.27;4.20;;;;;;;39.57;41.19;100996.69;5030578;28;20450;-71
2022/04/20 11:49:17;;;;;;;8.60;3.53;;;;;;;39.43;41.24;100990.59;5030834;28;20986;-70
2022/04/20 11:51:59;;;;;;;13.90;4.93;;;;;;;39.55;40.52;100977.22;5030734;28;20959;-70
2022/04/20 11:54:30;;;;;;;6.83;3.37;;;;;;;39.43;41.08;100982.44;5030463;28;20454;-68
2022/04/20 11:56:56;;;;;;;16.03;7.97;;;;;;;39.59;40.67;100975.47;5035259;28;20470;-69